Time;durP1;ratioP1;P1;durP2;ratioP2;P2;SDS_P1;SDS_P2;PMS_P1;PMS_P2;Temp;Humidity;BMP_temperature;BMP_pressure;BME280_temperature;BME280_humidity;BME280_pressure;Samples;Min_cycle;Max_cycle;Signal;HPM_P1;HPM_P2
2022/04/27 00:01:58;;;;;;;13.88;9.65;;;5.30;99.90;;;;;;5071117;28;20063;-88
2022/04/27 00:04:25;;;;;;;14.05;8.90;;;5.30;99.90;;;;;;5059780;28;20046;-87
2022/04/27 00:06:50;;;;;;;16.05;8.68;;;5.40;99.90;;;;;;5072196;28;20028;-89
2022/04/27 00:09:16;;;;;;;13.07;9.02;;;5.50;99.90;;;;;;5059363;28;20036;-87
2022/04/27 00:11:42;;;;;;;15.48;8.98;;;5.50;99.90;;;;;;5088724;28;20147;-88
2022/04/27 00:14:07;;;;;;;13.85;8.30;;;5.50;99.90;;;;;;5060381;28;20036;-88
2022/04/27 00:16:33;;;;;;;12.02;8.70;;;5.50;99.90;;;;;;5069782;28;20112;-88
2022/04/27 00:19:02;;;;;;;11.25;8.27;;;5.60;99.90;;;;;;5059769;28;20032;-87
2022/04/27 00:21:28;;;;;;;12.15;8.35;;;5.70;99.90;;;;;;5073371;28;20040;-87
2022/04/27 00:23:53;;;;;;;12.88;8.60;;;5.70;99.90;;;;;;5063543;28;20039;-87
2022/04/27 00:26:19;;;;;;;13.60;8.27;;;5.70;99.90;;;;;;5058650;28;20068;-88
2022/04/27 00:28:45;;;;;;;12.02;8.68;;;5.80;99.90;;;;;;5072158;28;20048;-87
2022/04/27 00:31:11;;;;;;;15.00;8.90;;;5.80;99.90;;;;;;5072653;28;20115;-87
2022/04/27 00:33:36;;;;;;;14.85;8.57;;;5.80;99.90;;;;;;5069886;28;20367;-88
2022/04/27 00:36:06;;;;;;;14.95;9.13;;;5.90;99.90;;;;;;5059582;28;20491;-87
2022/04/27 00:38:31;;;;;;;12.85;8.77;;;5.90;99.90;;;;;;5074199;28;20050;-88
2022/04/27 00:40:57;;;;;;;12.45;8.45;;;5.90;99.90;;;;;;5066172;28;20036;-87
2022/04/27 00:43:41;;;;;;;15.13;8.48;;;6.00;99.90;;;;;;5073472;28;20101;-87
2022/04/27 00:46:09;;;;;;;12.43;8.27;;;5.90;99.90;;;;;;5079009;28;20123;-88
2022/04/27 00:48:41;;;;;;;13.77;9.48;;;5.80;99.90;;;;;;5065816;28;20040;-87
2022/04/27 00:51:11;;;;;;;12.30;9.20;;;5.80;99.90;;;;;;5070984;28;20073;-88
2022/04/27 00:53:37;;;;;;;13.70;8.82;;;5.80;99.90;;;;;;5060778;28;20040;-88
2022/04/27 00:56:06;;;;;;;12.10;9.50;;;5.90;99.90;;;;;;5060660;28;20090;-87
2022/04/27 00:58:32;;;;;;;14.35;9.55;;;5.80;99.90;;;;;;5061928;28;20584;-87
2022/04/27 01:00:58;;;;;;;16.80;9.57;;;5.90;99.90;;;;;;5059603;28;20040;-88
2022/04/27 01:03:23;;;;;;;14.15;8.57;;;5.90;99.90;;;;;;5061702;28;20471;-87
2022/04/27 01:05:50;;;;;;;15.10;8.85;;;5.90;99.90;;;;;;5067902;28;20036;-87
2022/04/27 01:08:16;;;;;;;16.23;9.63;;;5.90;99.90;;;;;;5060123;28;20079;-88
2022/04/27 01:10:47;;;;;;;34.95;9.18;;;5.90;99.90;;;;;;5059139;28;20151;-87
2022/04/27 01:13:13;;;;;;;15.15;8.90;;;5.90;99.90;;;;;;5053394;28;20072;-88
2022/04/27 01:15:39;;;;;;;14.60;10.15;;;6.00;99.90;;;;;;5061188;28;20052;-88
2022/04/27 01:18:09;;;;;;;16.20;9.18;;;6.00;99.90;;;;;;5075711;28;20485;-88
2022/04/27 01:20:45;;;;;;;15.40;9.05;;;6.10;99.90;;;;;;5053793;28;20082;-88
2022/04/27 01:23:14;;;;;;;15.82;9.38;;;6.10;99.90;;;;;;5079002;28;20466;-87
2022/04/27 01:25:51;;;;;;;16.77;9.82;;;6.20;99.90;;;;;;5061552;28;20403;-87
2022/04/27 01:28:22;;;;;;;13.25;9.00;;;6.20;99.90;;;;;;5076843;28;20043;-86
2022/04/27 01:30:58;;;;;;;16.70;9.02;;;6.20;99.90;;;;;;5057973;28;20404;-88
2022/04/27 01:33:25;;;;;;;14.77;9.60;;;6.20;99.90;;;;;;5072389;28;20047;-88
2022/04/27 01:35:52;;;;;;;14.45;8.80;;;6.30;99.90;;;;;;5063034;28;20043;-89
2022/04/27 01:38:18;;;;;;;16.13;10.10;;;6.40;99.90;;;;;;5074262;28;20715;-87
2022/04/27 01:40:48;;;;;;;13.63;8.85;;;6.40;99.90;;;;;;5061699;28;20052;-89
2022/04/27 01:43:15;;;;;;;16.10;9.40;;;6.50;99.90;;;;;;5064751;28;20052;-88
2022/04/27 01:45:44;;;;;;;14.02;9.25;;;6.50;99.90;;;;;;5059777;28;20075;-87
2022/04/27 01:48:11;;;;;;;17.75;9.40;;;6.60;99.90;;;;;;5074885;28;20051;-88
2022/04/27 01:50:37;;;;;;;16.15;10.20;;;6.60;99.90;;;;;;5058771;28;20503;-87
2022/04/27 01:55:51;;;;;;;13.95;9.30;;;6.60;99.90;;;;;;5074457;28;20182;-88
2022/04/27 01:58:18;;;;;;;15.80;9.30;;;6.60;99.90;;;;;;5066342;28;20119;-87
2022/04/27 02:00:46;;;;;;;14.68;9.32;;;6.70;99.90;;;;;;5064117;28;20051;-88
2022/04/27 02:03:13;;;;;;;14.88;9.23;;;6.70;99.90;;;;;;5060476;28;20111;-88
2022/04/27 02:05:42;;;;;;;12.70;9.07;;;6.70;99.90;;;;;;5063172;28;20051;-88
2022/04/27 02:08:10;;;;;;;14.93;9.35;;;6.70;99.90;;;;;;5065793;28;20040;-88
2022/04/27 02:10:37;;;;;;;13.13;9.27;;;6.70;99.90;;;;;;5093944;28;20365;-87
2022/04/27 02:13:04;;;;;;;23.20;10.38;;;6.70;99.90;;;;;;5074197;28;20032;-87
2022/04/27 02:15:30;;;;;;;16.52;9.63;;;6.70;99.90;;;;;;5062120;28;20036;-88
2022/04/27 02:17:59;;;;;;;14.52;9.50;;;6.70;99.90;;;;;;5078371;28;20028;-86
2022/04/27 02:20:25;;;;;;;14.15;10.02;;;6.70;99.90;;;;;;5077048;28;20107;-88
2022/04/27 02:22:51;;;;;;;16.00;8.75;;;6.70;99.90;;;;;;5074862;28;20488;-86
2022/04/27 02:25:18;;;;;;;14.10;9.80;;;6.70;99.90;;;;;;5072982;28;20110;-88
2022/04/27 02:27:44;;;;;;;16.63;9.98;;;6.70;99.90;;;;;;5066543;28;20044;-87
2022/04/27 02:30:11;;;;;;;15.40;9.07;;;6.70;99.90;;;;;;5062236;28;20051;-87
2022/04/27 02:32:40;;;;;;;17.55;9.75;;;6.70;99.90;;;;;;5064975;28;20071;-88
2022/04/27 02:35:07;;;;;;;13.13;9.60;;;6.70;99.90;;;;;;5076138;28;20047;-88
2022/04/27 02:37:33;;;;;;;15.15;10.20;;;6.70;99.90;;;;;;5058993;28;20044;-88
2022/04/27 02:39:59;;;;;;;14.35;9.55;;;6.70;99.90;;;;;;5079953;28;20032;-87
2022/04/27 02:42:26;;;;;;;17.35;9.40;;;6.80;99.90;;;;;;5059850;28;20036;-87
2022/04/27 02:44:52;;;;;;;18.40;10.10;;;6.80;99.90;;;;;;5053942;28;20127;-88
2022/04/27 02:47:18;;;;;;;13.73;9.40;;;6.80;99.90;;;;;;5076076;28;20040;-87
2022/04/27 02:52:29;;;;;;;15.95;9.27;;;6.80;99.90;;;;;;5095889;28;20455;-87
2022/04/27 02:54:55;;;;;;;18.23;9.20;;;6.80;99.90;;;;;;5061868;28;20036;-87
2022/04/27 02:57:21;;;;;;;13.25;8.98;;;6.80;99.90;;;;;;5073094;28;20126;-87
2022/04/27 02:59:50;;;;;;;14.60;8.85;;;6.80;99.90;;;;;;5061335;28;20052;-88
2022/04/27 03:02:16;;;;;;;14.63;9.48;;;6.80;99.90;;;;;;5073208;28;20119;-87
2022/04/27 03:04:42;;;;;;;14.88;8.80;;;6.80;99.90;;;;;;5063657;28;20124;-87
2022/04/27 03:07:08;;;;;;;11.55;9.13;;;6.80;99.90;;;;;;5072443;28;20036;-87
2022/04/27 03:09:34;;;;;;;13.13;9.23;;;6.80;99.90;;;;;;5059946;28;20599;-87
2022/04/27 03:12:00;;;;;;;15.20;9.68;;;6.90;99.90;;;;;;5059782;28;20039;-88
2022/04/27 03:14:28;;;;;;;14.07;8.82;;;6.90;99.90;;;;;;5060486;28;20500;-88
2022/04/27 03:16:55;;;;;;;15.57;10.40;;;6.90;99.90;;;;;;5074528;28;20032;-87
2022/04/27 03:19:21;;;;;;;15.30;9.13;;;6.90;99.90;;;;;;5080535;28;20507;-88
2022/04/27 03:21:47;;;;;;;15.57;9.65;;;6.90;99.90;;;;;;5080828;28;20111;-87
2022/04/27 03:24:13;;;;;;;15.07;9.50;;;6.90;99.90;;;;;;5063343;28;20582;-87
2022/04/27 03:26:41;;;;;;;13.25;9.07;;;6.90;99.90;;;;;;5061717;28;20036;-88
2022/04/27 03:29:10;;;;;;;15.93;9.60;;;6.90;99.90;;;;;;5074533;28;20036;-88
2022/04/27 03:31:36;;;;;;;13.77;9.65;;;6.90;99.90;;;;;;5061772;28;20097;-87
2022/04/27 03:34:01;;;;;;;19.42;9.80;;;6.90;99.90;;;;;;5062669;28;20037;-87
2022/04/27 03:36:27;;;;;;;14.13;9.05;;;6.90;99.90;;;;;;5071189;28;20053;-88
2022/04/27 03:38:53;;;;;;;16.45;9.40;;;6.90;99.90;;;;;;5075196;28;20032;-87
2022/04/27 03:41:22;;;;;;;17.70;9.68;;;7.00;99.90;;;;;;5075809;28;20032;-87
2022/04/27 03:43:50;;;;;;;14.23;8.95;;;7.00;99.90;;;;;;5071915;28;20047;-88
2022/04/27 03:46:16;;;;;;;15.43;9.57;;;7.00;99.90;;;;;;5076752;28;20678;-87
2022/04/27 03:48:42;;;;;;;17.67;9.95;;;7.00;99.90;;;;;;5062806;28;20303;-88
2022/04/27 03:51:09;;;;;;;12.80;9.52;;;7.00;99.90;;;;;;5074084;28;20461;-88
2022/04/27 03:53:34;;;;;;;14.15;9.52;;;7.00;99.90;;;;;;5063166;28;20377;-88
2022/04/27 03:56:00;;;;;;;13.27;9.60;;;7.00;99.90;;;;;;5063228;28;20028;-87
2022/04/27 03:58:26;;;;;;;16.52;10.20;;;7.00;99.90;;;;;;5053161;28;20094;-87
2022/04/27 04:00:55;;;;;;;16.58;10.00;;;7.00;99.90;;;;;;5059508;28;20180;-87
2022/04/27 04:03:20;;;;;;;16.17;9.70;;;7.00;99.90;;;;;;5073523;28;20530;-87
2022/04/27 04:05:46;;;;;;;15.40;9.63;;;7.00;99.90;;;;;;5077782;28;20412;-87
2022/04/27 04:08:12;;;;;;;13.60;8.77;;;7.00;99.90;;;;;;5060819;28;20047;-87
2022/04/27 04:10:41;;;;;;;14.00;8.98;;;7.00;99.90;;;;;;5072588;28;20121;-87
2022/04/27 04:13:06;;;;;;;15.57;9.32;;;7.00;99.90;;;;;;5073823;28;20464;-86
2022/04/27 04:15:32;;;;;;;13.52;9.23;;;7.00;99.90;;;;;;5075042;28;20064;-87
2022/04/27 04:17:58;;;;;;;13.20;8.70;;;7.10;99.90;;;;;;5075977;28;20036;-88
2022/04/27 04:20:24;;;;;;;14.77;8.77;;;7.10;99.90;;;;;;5057825;28;20328;-87
2022/04/27 04:22:50;;;;;;;13.48;9.20;;;7.10;99.90;;;;;;5060941;28;20032;-87
2022/04/27 04:30:48;;;;;;;12.27;8.63;;;7.10;99.90;;;;;;5076929;28;20539;-87
2022/04/27 04:33:13;;;;;;;14.55;9.10;;;7.20;99.90;;;;;;5072957;28;20123;-88
2022/04/27 04:35:39;;;;;;;14.40;8.38;;;7.20;99.90;;;;;;5073923;28;20473;-87
2022/04/27 04:38:05;;;;;;;16.77;8.90;;;7.20;99.90;;;;;;5060050;28;20130;-87
2022/04/27 04:40:31;;;;;;;14.95;8.55;;;7.20;99.90;;;;;;5059414;28;20217;-88
2022/04/27 04:42:57;;;;;;;12.68;8.43;;;7.20;99.90;;;;;;5090709;28;20498;-88
2022/04/27 04:45:25;;;;;;;10.82;8.18;;;7.20;99.90;;;;;;5062975;28;20035;-88
2022/04/27 04:47:51;;;;;;;11.60;7.78;;;7.30;99.90;;;;;;5078097;28;20099;-88
2022/04/27 04:50:17;;;;;;;13.70;7.95;;;7.30;99.90;;;;;;5055691;28;20152;-87
2022/04/27 04:52:44;;;;;;;15.57;8.48;;;7.30;99.90;;;;;;5059665;28;20135;-87
2022/04/27 04:55:09;;;;;;;11.18;7.85;;;7.30;99.90;;;;;;5063634;28;20050;-87
2022/04/27 04:57:35;;;;;;;13.55;7.65;;;7.30;99.90;;;;;;5074412;28;20057;-87
2022/04/27 05:00:03;;;;;;;12.25;8.20;;;7.40;99.90;;;;;;5075008;28;20052;-87
2022/04/27 05:02:32;;;;;;;11.45;7.50;;;7.40;99.90;;;;;;5074001;28;20078;-86
2022/04/27 05:05:04;;;;;;;13.50;7.45;;;7.50;99.90;;;;;;5060433;28;20138;-88
2022/04/27 05:18:08;;;;;;;13.70;7.38;;;7.50;99.90;;;;;;5086002;27;20403;-87
2022/04/27 05:20:34;;;;;;;11.80;8.00;;;7.70;99.90;;;;;;5076860;28;20044;-87
2022/04/27 05:23:00;;;;;;;14.70;7.60;;;7.70;99.90;;;;;;5057847;28;20043;-88
2022/04/27 05:25:29;;;;;;;13.23;7.78;;;7.80;99.90;;;;;;5073472;28;20042;-88
2022/04/27 05:27:55;;;;;;;11.88;7.88;;;7.80;99.90;;;;;;5072209;28;20449;-88
2022/04/27 05:33:05;;;;;;;12.55;7.38;;;7.90;99.90;;;;;;5071544;28;20049;-87
2022/04/27 05:35:31;;;;;;;11.48;7.65;;;7.90;99.90;;;;;;5067795;28;20455;-87
2022/04/27 05:37:57;;;;;;;10.10;7.53;;;8.00;99.90;;;;;;5053602;28;20054;-87
2022/04/27 05:40:25;;;;;;;10.98;7.60;;;8.00;99.90;;;;;;5067858;28;20055;-87
2022/04/27 05:42:50;;;;;;;12.30;7.43;;;8.10;99.90;;;;;;5060013;28;20159;-87
2022/04/27 05:45:16;;;;;;;15.70;8.23;;;8.10;99.90;;;;;;5059427;28;20143;-87
2022/04/27 05:47:42;;;;;;;10.95;7.45;;;8.20;99.90;;;;;;5087184;28;20039;-88
2022/04/27 05:50:08;;;;;;;11.15;7.93;;;8.20;99.90;;;;;;5066982;28;20048;-88
2022/04/27 05:52:48;;;;;;;11.57;7.47;;;8.30;99.90;;;;;;5058763;28;20044;-88
2022/04/27 05:55:13;;;;;;;9.95;6.72;;;8.20;99.90;;;;;;5057490;28;20044;-88
2022/04/27 05:57:42;;;;;;;11.27;7.50;;;8.30;99.90;;;;;;5058436;28;20063;-87
2022/04/27 06:00:08;;;;;;;12.68;6.80;;;8.40;89.80;;;;;;5075811;28;20040;-87
2022/04/27 06:02:34;;;;;;;9.07;6.97;;;8.40;17.90;;;;;;5053635;28;20098;-87
2022/04/27 06:05:00;;;;;;;13.93;7.13;;;8.50;90.50;;;;;;5076319;28;20040;-87
2022/04/27 06:07:25;;;;;;;11.43;7.25;;;8.50;10.00;;;;;;5072984;28;20497;-87
2022/04/27 06:09:51;;;;;;;9.77;7.15;;;8.50;53.50;;;;;;5055157;28;20489;-87
2022/04/27 06:12:18;;;;;;;7.18;6.45;;;8.60;25.10;;;;;;5072257;28;20443;-87
2022/04/27 06:14:46;;;;;;;10.20;6.43;;;8.70;1.00;;;;;;5091769;28;20489;-88
2022/04/27 06:17:13;;;;;;;9.25;5.95;;;8.80;1.00;;;;;;5052277;28;20071;-87
2022/04/27 06:19:38;;;;;;;8.50;6.90;;;8.80;1.00;;;;;;5046911;28;20434;-88
2022/04/27 06:22:04;;;;;;;9.15;6.80;;;8.90;1.00;;;;;;5057565;28;20117;-88
2022/04/27 06:24:31;;;;;;;12.27;6.65;;;9.00;1.00;;;;;;5042826;28;20105;-87
2022/04/27 06:26:57;;;;;;;13.02;6.25;;;9.00;30.00;;;;;;5044533;28;20037;-87
2022/04/27 06:29:23;;;;;;;9.25;6.28;;;9.00;1.00;;;;;;5047130;28;20093;-87
2022/04/27 06:31:48;;;;;;;9.52;5.68;;;9.20;1.00;;;;;;5054506;28;20047;-86
2022/04/27 06:34:14;;;;;;;10.15;5.60;;;9.10;1.00;;;;;;5045076;28;20454;-87
2022/04/27 06:36:40;;;;;;;8.63;5.95;;;9.20;1.00;;;;;;5062992;28;20049;-87
2022/04/27 06:39:07;;;;;;;9.02;5.88;;;9.30;1.00;;;;;;5050912;28;20446;-87
2022/04/27 06:41:33;;;;;;;7.47;5.53;;;9.30;1.00;;;;;;5057239;28;20240;-88
2022/04/27 06:43:59;;;;;;;7.05;5.30;;;9.30;99.90;;;;;;5058215;28;20235;-88
2022/04/27 06:46:24;;;;;;;5.90;3.90;;;9.30;99.90;;;;;;5052361;28;20036;-87
2022/04/27 06:48:50;;;;;;;6.38;5.00;;;9.30;99.90;;;;;;5057290;28;20044;-88
2022/04/27 06:51:19;;;;;;;9.77;4.80;;;9.40;99.90;;;;;;5058754;28;20033;-87
2022/04/27 06:53:45;;;;;;;6.90;4.45;;;9.40;99.90;;;;;;5036898;28;20999;-88
2022/04/27 06:56:11;;;;;;;6.25;4.65;;;9.40;99.90;;;;;;5060958;28;20044;-87
2022/04/27 06:58:36;;;;;;;6.50;4.70;;;9.50;99.90;;;;;;5042180;28;20044;-87
2022/04/27 07:01:04;;;;;;;5.57;4.28;;;9.60;99.90;;;;;;5043498;28;20032;-88
2022/04/27 07:03:32;;;;;;;5.28;3.42;;;9.70;99.90;;;;;;5045132;28;20044;-87
2022/04/27 07:05:58;;;;;;;6.40;4.40;;;9.70;99.90;;;;;;5054376;28;20033;-87
2022/04/27 07:08:24;;;;;;;5.10;3.72;;;9.70;99.90;;;;;;5058107;28;20060;-88
2022/04/27 07:10:50;;;;;;;7.47;4.15;;;9.80;99.90;;;;;;5060314;28;20063;-88
2022/04/27 07:13:16;;;;;;;6.15;4.03;;;9.80;99.90;;;;;;5041166;28;20666;-87
2022/04/27 07:15:41;;;;;;;4.10;3.20;;;9.90;99.90;;;;;;5039842;28;20036;-87
2022/04/27 07:18:07;;;;;;;5.00;3.47;;;9.90;99.90;;;;;;5060045;28;20089;-87
2022/04/27 07:20:33;;;;;;;5.32;3.20;;;10.00;99.90;;;;;;5043863;28;20480;-88
2022/04/27 07:22:59;;;;;;;6.75;3.15;;;9.90;99.90;;;;;;5037685;28;20547;-88
2022/04/27 07:25:24;;;;;;;5.40;2.95;;;10.00;99.90;;;;;;5071778;28;20134;-87
2022/04/27 07:27:50;;;;;;;4.32;3.17;;;10.00;99.90;;;;;;5060418;28;20107;-87
2022/04/27 07:30:16;;;;;;;5.53;3.00;;;10.00;99.90;;;;;;5041734;28;20050;-87
2022/04/27 07:32:42;;;;;;;4.30;2.95;;;10.00;99.90;;;;;;5053198;28;20069;-87
2022/04/27 07:35:08;;;;;;;4.47;3.00;;;10.20;99.90;;;;;;5044312;28;20381;-87
2022/04/27 07:37:38;;;;;;;3.83;2.70;;;10.40;99.90;;;;;;5042866;28;20474;-86
2022/04/27 07:40:09;;;;;;;5.25;2.65;;;10.40;99.90;;;;;;5055534;28;20040;-87
2022/04/27 07:42:34;;;;;;;4.90;2.75;;;10.50;99.90;;;;;;5055562;28;20059;-87
2022/04/27 07:45:00;;;;;;;3.10;2.15;;;10.60;99.90;;;;;;5054140;28;20060;-87
2022/04/27 07:47:26;;;;;;;6.90;2.53;;;10.70;99.90;;;;;;5058901;28;20372;-87
2022/04/27 07:49:52;;;;;;;3.80;2.55;;;10.70;99.90;;;;;;5040675;28;20059;-87
2022/04/27 07:52:17;;;;;;;4.95;2.60;;;11.00;99.90;;;;;;5039113;28;20530;-87
2022/04/27 07:54:44;;;;;;;5.10;2.50;;;10.90;99.90;;;;;;5039244;28;20051;-87
2022/04/27 07:57:10;;;;;;;6.13;2.60;;;11.20;99.90;;;;;;5040327;28;20421;-87
2022/04/27 07:59:35;;;;;;;3.58;2.60;;;11.30;99.90;;;;;;5057630;28;20140;-88
2022/04/27 08:02:01;;;;;;;4.43;2.47;;;11.30;99.90;;;;;;5049994;28;20033;-88
2022/04/27 08:04:26;;;;;;;3.85;2.60;;;11.40;99.90;;;;;;5054551;28;20161;-87
2022/04/27 08:06:52;;;;;;;4.72;2.40;;;11.60;99.90;;;;;;5040450;28;20056;-87
2022/04/27 08:09:18;;;;;;;3.30;2.20;;;11.50;99.90;;;;;;5039007;28;20032;-87
2022/04/27 08:11:43;;;;;;;5.50;2.35;;;11.60;99.90;;;;;;5041679;28;20029;-87
2022/04/27 08:14:09;;;;;;;5.38;2.55;;;11.80;99.90;;;;;;5038016;28;20076;-88
2022/04/27 08:16:35;;;;;;;3.72;2.20;;;11.70;99.90;;;;;;5054481;28;20056;-87
2022/04/27 08:19:01;;;;;;;6.45;2.40;;;11.50;99.90;;;;;;5037279;28;20106;-87
2022/04/27 08:21:27;;;;;;;5.85;2.13;;;11.60;99.90;;;;;;5039713;28;20502;-88
2022/04/27 08:23:53;;;;;;;5.78;2.40;;;11.40;99.90;;;;;;5040683;28;20599;-87
2022/04/27 08:26:19;;;;;;;6.50;2.58;;;11.40;99.90;;;;;;5041418;28;20194;-87
2022/04/27 08:28:48;;;;;;;4.10;2.40;;;11.40;99.90;;;;;;5057858;28;20182;-88
2022/04/27 08:31:18;;;;;;;4.93;2.50;;;11.20;99.90;;;;;;5039120;28;20505;-86
2022/04/27 08:33:44;;;;;;;5.70;2.85;;;10.80;99.90;;;;;;5039097;28;20544;-87
2022/04/27 08:36:10;;;;;;;4.88;2.53;;;10.90;99.90;;;;;;5052900;28;20044;-88
2022/04/27 08:38:37;;;;;;;6.75;2.83;;;11.00;99.90;;;;;;5033706;28;20621;-86
2022/04/27 08:41:03;;;;;;;7.55;2.65;;;11.20;99.90;;;;;;5043090;28;20174;-87
2022/04/27 08:43:29;;;;;;;4.18;2.55;;;11.20;99.90;;;;;;5056573;28;20028;-88
2022/04/27 08:45:58;;;;;;;5.65;2.70;;;11.30;99.90;;;;;;5040876;28;20078;-88
2022/04/27 08:48:24;;;;;;;6.30;2.97;;;11.40;99.90;;;;;;5040288;28;20518;-87
2022/04/27 08:50:51;;;;;;;4.40;2.17;;;11.20;99.90;;;;;;5041326;28;20044;-86
2022/04/27 08:53:18;;;;;;;5.05;2.60;;;11.10;99.90;;;;;;5037608;28;20037;-87
2022/04/27 08:55:45;;;;;;;5.53;2.42;;;11.10;99.90;;;;;;5039959;28;20040;-87
2022/04/27 08:58:15;;;;;;;4.85;2.35;;;11.00;99.90;;;;;;5045050;28;20051;-88
2022/04/27 09:00:45;;;;;;;6.47;2.60;;;11.10;99.90;;;;;;5042993;28;20055;-88
2022/04/27 09:03:27;;;;;;;6.68;2.38;;;11.10;99.90;;;;;;5049922;28;20053;-87
2022/04/27 09:05:58;;;;;;;7.03;2.78;;;10.80;99.90;;;;;;5073116;28;20040;-88
2022/04/27 09:08:44;;;;;;;6.45;2.90;;;10.80;99.90;;;;;;5042632;28;20498;-88
2022/04/27 09:11:37;;;;;;;4.90;2.60;;;10.70;99.90;;;;;;5042450;28;20036;-88
2022/04/27 09:14:09;;;;;;;7.05;2.88;;;11.10;99.90;;;;;;5035220;28;20060;-86
2022/04/27 09:22:07;;;;;;;7.32;2.72;;;10.90;99.90;;;;;;5055713;28;20094;-87
2022/04/27 09:24:55;;;;;;;6.35;2.60;;;11.00;99.90;;;;;;5039150;28;20051;-87
2022/04/27 09:27:26;;;;;;;6.80;2.90;;;11.00;99.90;;;;;;5035034;28;20044;-88
2022/04/27 09:30:04;;;;;;;8.32;2.80;;;11.00;99.90;;;;;;5038840;28;20063;-87
2022/04/27 09:32:30;;;;;;;9.63;2.65;;;11.10;99.90;;;;;;5039705;28;20119;-87
2022/04/27 09:35:02;;;;;;;6.70;2.72;;;10.90;99.90;;;;;;5035254;28;20099;-87
2022/04/27 09:37:30;;;;;;;8.18;2.50;;;11.00;99.90;;;;;;5054022;28;20051;-88
2022/04/27 09:40:13;;;;;;;7.30;3.13;;;11.40;99.90;;;;;;5035475;28;20101;-87
2022/04/27 09:42:46;;;;;;;5.60;2.90;;;11.10;99.90;;;;;;5048734;28;20036;-87
2022/04/27 09:45:29;;;;;;;9.43;3.38;;;11.50;99.90;;;;;;5056528;28;20053;-88
2022/04/27 09:48:08;;;;;;;4.75;3.15;;;11.70;99.90;;;;;;5041740;28;20117;-88
2022/04/27 09:50:58;;;;;;;7.05;2.95;;;11.40;99.90;;;;;;5051009;28;20044;-87
2022/04/27 09:53:25;;;;;;;5.63;3.15;;;11.30;99.90;;;;;;5056149;28;20151;-87
2022/04/27 09:55:54;;;;;;;5.18;3.20;;;11.50;99.90;;;;;;5042720;28;20353;-89
2022/04/27 09:58:24;;;;;;;9.25;3.70;;;11.60;99.90;;;;;;5042429;28;20110;-88
2022/04/27 10:00:52;;;;;;;7.97;3.22;;;11.50;99.90;;;;;;5044556;28;20401;-87
2022/04/27 10:03:25;;;;;;;9.20;3.30;;;11.80;99.90;;;;;;5043757;28;20128;-88
2022/04/27 10:05:51;;;;;;;5.05;3.08;;;11.70;99.90;;;;;;5037982;28;20041;-87
2022/04/27 10:08:22;;;;;;;8.10;3.20;;;11.60;99.90;;;;;;5044031;28;20040;-88
2022/04/27 10:10:48;;;;;;;6.80;3.38;;;11.60;99.90;;;;;;5040741;28;20430;-87
2022/04/27 10:13:15;;;;;;;9.45;3.30;;;11.60;99.90;;;;;;5058493;28;20128;-87
2022/04/27 10:15:46;;;;;;;7.72;3.50;;;11.60;99.90;;;;;;5056860;28;20040;-88
2022/04/27 10:18:20;;;;;;;7.45;3.28;;;11.30;99.90;;;;;;5051722;28;20337;-86
2022/04/27 10:20:49;;;;;;;8.75;3.22;;;11.20;99.90;;;;;;5051698;28;20119;-86
2022/04/27 10:23:28;;;;;;;7.63;3.13;;;11.30;99.90;;;;;;5054514;28;20068;-87
2022/04/27 10:26:15;;;;;;;7.45;3.30;;;11.40;99.90;;;;;;5055873;28;20041;-87
2022/04/27 10:28:59;;;;;;;7.25;3.05;;;11.70;99.90;;;;;;5054044;28;20040;-87
2022/04/27 10:31:54;;;;;;;6.18;2.83;;;11.40;99.90;;;;;;5055518;28;20060;-87
2022/04/27 10:34:33;;;;;;;9.73;3.28;;;11.30;99.90;;;;;;5032773;28;20374;-87
2022/04/27 10:37:00;;;;;;;8.75;2.90;;;11.30;99.90;;;;;;5050298;28;20043;-87
2022/04/27 10:39:31;;;;;;;8.48;3.35;;;11.10;99.90;;;;;;5051360;28;20093;-88
2022/04/27 10:42:03;;;;;;;10.10;3.30;;;10.90;99.90;;;;;;5056875;28;20041;-86
2022/04/27 10:44:47;;;;;;;9.10;3.22;;;11.00;99.90;;;;;;5043158;28;20548;-87
2022/04/27 10:47:18;;;;;;;10.30;3.30;;;11.00;99.90;;;;;;5059121;28;20116;-87
2022/04/27 10:49:48;;;;;;;10.63;3.40;;;10.80;99.90;;;;;;5041556;28;20481;-86
2022/04/27 10:52:23;;;;;;;10.80;3.25;;;10.80;99.90;;;;;;5056912;28;20113;-87
2022/04/27 10:54:51;;;;;;;8.57;3.13;;;10.90;99.90;;;;;;5042019;28;20210;-88
2022/04/27 10:57:16;;;;;;;12.02;3.40;;;10.80;99.90;;;;;;5078797;28;20489;-87
2022/04/27 10:59:47;;;;;;;10.07;3.13;;;10.70;99.90;;;;;;5061590;28;20059;-87
2022/04/27 11:02:39;;;;;;;7.45;3.20;;;10.80;99.90;;;;;;5042472;28;20059;-89
2022/04/27 11:05:20;;;;;;;13.85;4.00;;;11.00;99.90;;;;;;5044331;28;20083;-87
2022/04/27 11:07:48;;;;;;;13.43;4.00;;;10.70;99.90;;;;;;5050845;28;20536;-87
2022/04/27 11:10:20;;;;;;;10.43;3.88;;;10.70;99.90;;;;;;5055898;28;20044;-88
2022/04/27 11:12:49;;;;;;;8.50;2.95;;;10.50;99.90;;;;;;5059379;28;20040;-88
2022/04/27 11:15:21;;;;;;;13.13;3.65;;;10.70;99.90;;;;;;5051377;28;20028;-88
2022/04/27 11:17:55;;;;;;;13.95;3.70;;;10.70;99.90;;;;;;5040873;28;20056;-87
2022/04/27 11:20:33;;;;;;;14.00;3.60;;;10.70;99.90;;;;;;5052543;28;20156;-88
2022/04/27 11:23:07;;;;;;;13.60;3.38;;;10.90;99.90;;;;;;5041796;28;20044;-88
2022/04/27 11:25:36;;;;;;;9.88;3.53;;;10.90;99.90;;;;;;5039891;28;20028;-88
2022/04/27 11:28:05;;;;;;;14.20;3.42;;;10.90;99.90;;;;;;5060597;28;20045;-88
2022/04/27 11:30:31;;;;;;;10.55;3.80;;;11.00;99.90;;;;;;5044401;28;20044;-87
2022/04/27 11:32:57;;;;;;;10.70;3.75;;;10.80;99.90;;;;;;5042304;28;20063;-87
2022/04/27 11:35:25;;;;;;;10.73;3.42;;;10.90;99.90;;;;;;5061238;28;20055;-87
2022/04/27 11:37:55;;;;;;;11.15;3.90;;;10.90;99.90;;;;;;5057167;28;20033;-88
2022/04/27 11:40:25;;;;;;;10.05;3.08;;;11.20;99.90;;;;;;5038671;28;20452;-88
2022/04/27 11:42:52;;;;;;;11.38;3.50;;;11.00;99.90;;;;;;5040408;28;20106;-88
2022/04/27 11:45:20;;;;;;;13.95;3.40;;;11.10;99.90;;;;;;5054993;28;20044;-88
2022/04/27 11:48:21;;;;;;;10.27;3.78;;;10.90;99.90;;;;;;5043439;28;20122;-88
2022/04/27 11:50:48;;;;;;;11.38;3.42;;;10.90;99.90;;;;;;5014607;28;20055;-88
2022/04/27 11:53:17;;;;;;;8.88;3.42;;;11.10;99.90;;;;;;5043222;28;20576;-88
2022/04/27 11:55:49;;;;;;;12.73;3.53;;;11.00;99.90;;;;;;5052291;28;20044;-87
2022/04/27 11:58:22;;;;;;;15.18;3.67;;;10.90;99.90;;;;;;5039760;28;20043;-88
2022/04/27 12:00:49;;;;;;;7.93;3.45;;;11.30;99.90;;;;;;5052469;28;20114;-88
2022/04/27 12:03:15;;;;;;;11.70;3.17;;;11.20;99.90;;;;;;5049875;28;20124;-89
2022/04/27 12:05:41;;;;;;;13.00;3.60;;;11.00;99.90;;;;;;5037067;28;20375;-87
2022/04/27 12:08:11;;;;;;;9.60;3.40;;;11.20;99.90;;;;;;5042436;28;20518;-89
2022/04/27 12:10:45;;;;;;;11.98;3.50;;;11.50;99.90;;;;;;5040586;28;20044;-87
2022/04/27 12:13:12;;;;;;;9.32;3.60;;;11.30;99.90;;;;;;5057035;28;20063;-88
2022/04/27 12:15:41;;;;;;;11.43;3.67;;;11.20;99.90;;;;;;5043604;28;20054;-88
2022/04/27 12:18:17;;;;;;;11.70;3.33;;;11.50;99.90;;;;;;5041611;28;20110;-88
2022/04/27 12:20:45;;;;;;;11.30;3.47;;;11.80;99.90;;;;;;5050637;28;20119;-87
2022/04/27 12:23:19;;;;;;;8.02;3.17;;;11.80;99.90;;;;;;5043878;28;20094;-87
2022/04/27 12:26:01;;;;;;;9.30;2.92;;;12.20;99.90;;;;;;5059330;28;20049;-86
2022/04/27 12:28:41;;;;;;;10.23;3.80;;;12.60;99.90;;;;;;5046698;28;20048;-88
2022/04/27 12:31:09;;;;;;;8.88;3.22;;;12.00;99.90;;;;;;5048503;28;20228;-87
2022/04/27 12:33:37;;;;;;;9.63;3.10;;;12.30;99.90;;;;;;5056983;28;20040;-87
2022/04/27 12:38:55;;;;;;;8.80;3.53;;;13.20;99.90;;;;;;5064661;28;20179;-88
2022/04/27 12:41:40;;;;;;;9.95;3.20;;;13.30;99.90;;;;;;5055093;28;20126;-87
2022/04/27 12:44:11;;;;;;;12.82;3.50;;;13.20;99.90;;;;;;5046341;28;20041;-88
2022/04/27 12:46:53;;;;;;;10.85;3.05;;;13.60;99.90;;;;;;5037741;28;20036;-88
2022/04/27 12:49:25;;;;;;;6.85;2.97;;;13.70;99.90;;;;;;5037818;28;20032;-87
2022/04/27 12:51:50;;;;;;;9.15;3.38;;;14.40;99.90;;;;;;5038835;28;20038;-87
2022/04/27 12:54:16;;;;;;;8.77;2.83;;;14.60;99.90;;;;;;5047220;28;20036;-87
2022/04/27 12:56:42;;;;;;;8.68;3.13;;;13.80;99.90;;;;;;5037597;28;20048;-86
2022/04/27 12:59:13;;;;;;;8.80;2.90;;;14.00;99.90;;;;;;5035968;28;20048;-87
2022/04/27 13:01:42;;;;;;;11.48;3.08;;;14.80;99.90;;;;;;5036117;28;20037;-87
2022/04/27 13:04:08;;;;;;;9.70;3.08;;;15.20;99.90;;;;;;5039414;28;20097;-87
2022/04/27 13:06:34;;;;;;;8.57;3.35;;;14.80;99.90;;;;;;5049844;28;20400;-88
2022/04/27 13:11:55;;;;;;;7.80;2.67;;;14.00;99.90;;;;;;5052355;28;20037;-88
2022/04/27 13:14:22;;;;;;;6.72;2.75;;;14.30;99.90;;;;;;5037329;28;20040;-88
2022/04/27 13:16:48;;;;;;;6.70;2.60;;;14.60;99.90;;;;;;5034741;28;20406;-88
2022/04/27 13:19:14;;;;;;;5.85;2.38;;;15.00;99.90;;;;;;5038656;28;20113;-87
2022/04/27 13:21:42;;;;;;;9.57;2.78;;;15.30;99.90;;;;;;5035730;28;20151;-87
2022/04/27 13:24:08;;;;;;;7.55;3.00;;;15.30;99.90;;;;;;5050337;28;20131;-87
2022/04/27 13:26:34;;;;;;;7.78;2.72;;;14.10;99.90;;;;;;5048310;28;20604;-88
2022/04/27 13:29:00;;;;;;;10.07;2.90;;;13.70;99.90;;;;;;5039846;28;20028;-88